createdAt,value
2022-09-10T00:00:12.357Z,62.00
2022-09-10T00:01:15.302Z,62.15
2022-09-10T00:02:17.265Z,62.89
2022-09-10T00:03:18.961Z,62.28
2022-09-10T00:04:20.647Z,62.43
2022-09-10T00:05:22.613Z,62.45
2022-09-10T00:06:28.063Z,62.23
2022-09-10T00:07:32.750Z,62.60
2022-09-10T00:08:34.565Z,62.59
2022-09-10T00:09:36.505Z,62.78
2022-09-10T00:10:43.020Z,62.73
2022-09-10T00:11:45.905Z,62.58
2022-09-10T00:12:51.391Z,62.49
2022-09-10T00:13:53.176Z,62.78
2022-09-10T00:14:56.469Z,62.68
2022-09-10T00:15:59.787Z,62.58
2022-09-10T00:17:01.881Z,62.39
2022-09-10T00:18:03.643Z,62.78
2022-09-10T00:19:06.708Z,61.90
2022-09-10T00:20:09.309Z,61.64
2022-09-10T00:21:14.840Z,61.46
2022-09-10T00:22:17.073Z,61.51
2022-09-10T00:23:22.475Z,61.53
2022-09-10T00:24:24.321Z,61.46
2022-09-10T00:25:30.695Z,61.14
2022-09-10T00:26:38.316Z,60.79
2022-09-10T00:27:40.895Z,60.96
2022-09-10T00:28:43.411Z,61.58
2022-09-10T00:29:45.129Z,62.28
2022-09-10T00:30:49.702Z,61.26
2022-09-10T00:31:51.958Z,61.28
2022-09-10T00:32:55.143Z,60.75
2022-09-10T00:33:58.953Z,60.55
2022-09-10T00:35:01.852Z,60.73
2022-09-10T00:36:06.133Z,60.38
2022-09-10T00:37:07.828Z,60.36
2022-09-10T00:38:11.353Z,60.80
2022-09-10T00:39:15.906Z,61.81
2022-09-10T00:40:17.785Z,60.47
2022-09-10T00:41:21.795Z,60.18
2022-09-10T00:42:23.506Z,61.11
2022-09-10T00:43:25.646Z,61.35
2022-09-10T00:44:41.931Z,61.80
2022-09-10T00:45:46.633Z,61.60
2022-09-10T00:46:51.803Z,61.75
2022-09-10T00:47:57.278Z,61.91
2022-09-10T00:49:02.678Z,61.56
2022-09-10T00:50:22.243Z,61.27
2022-09-10T00:51:26.671Z,61.69
2022-09-10T00:52:29.524Z,61.80
2022-09-10T00:53:32.062Z,61.92
2022-09-10T00:54:36.236Z,61.79
2022-09-10T00:55:42.938Z,62.24
2022-09-10T00:56:45.526Z,62.94
2022-09-10T00:57:50.764Z,63.15
2022-09-10T00:58:52.978Z,63.13
2022-09-10T01:00:02.052Z,63.19
2022-09-10T01:01:04.321Z,64.19
2022-09-10T01:02:06.252Z,64.01
2022-09-10T01:03:14.141Z,64.55
2022-09-10T01:04:16.466Z,64.89
2022-09-10T01:05:19.708Z,65.22
2022-09-10T01:06:21.469Z,65.38
2022-09-10T01:07:25.538Z,64.83
2022-09-10T01:08:30.076Z,64.77
2022-09-10T01:09:32.022Z,64.76
2022-09-10T01:10:43.571Z,64.89
2022-09-10T01:12:09.051Z,65.62
2022-09-10T01:13:32.421Z,65.57
2022-09-10T01:14:55.516Z,65.75
2022-09-10T01:16:03.263Z,65.74
2022-09-10T01:17:34.532Z,65.71
2022-09-10T01:19:19.540Z,65.69
2022-09-10T01:20:48.559Z,65.66
2022-09-10T01:22:22.994Z,65.78
2022-09-10T01:24:15.024Z,65.91
2022-09-10T01:25:22.853Z,66.09
2022-09-10T01:26:51.939Z,65.83
2022-09-10T01:27:58.297Z,66.35
2022-09-10T01:29:28.506Z,65.93
2022-09-10T01:30:43.080Z,65.67
2022-09-10T01:32:15.750Z,66.00
2022-09-10T01:33:37.530Z,65.74
2022-09-10T01:34:51.340Z,66.13
2022-09-10T01:35:57.749Z,65.68
2022-09-10T01:37:08.060Z,65.88
2022-09-10T01:38:23.842Z,66.17
2022-09-10T01:39:27.529Z,65.70
2022-09-10T01:40:30.166Z,66.26
2022-09-10T01:41:32.286Z,65.82
2022-09-10T01:42:38.207Z,65.75
2022-09-10T01:43:41.309Z,66.27
2022-09-10T01:44:43.950Z,66.33
2022-09-10T01:46:19.297Z,66.28
2022-09-10T01:47:39.114Z,66.31
2022-09-10T01:48:56.282Z,65.63
2022-09-10T01:50:27.182Z,65.28
2022-09-10T01:51:45.056Z,65.58
2022-09-10T01:53:01.982Z,65.56
2022-09-10T01:54:14.497Z,65.62
2022-09-10T01:55:30.154Z,65.40
2022-09-10T01:57:01.654Z,65.55
2022-09-10T01:58:12.131Z,65.82
2022-09-10T01:59:22.839Z,65.59
2022-09-10T02:00:25.809Z,65.60
2022-09-10T02:01:51.195Z,65.68
2022-09-10T02:03:06.002Z,65.54
2022-09-10T02:04:10.625Z,65.33
2022-09-10T02:05:14.312Z,64.59
2022-09-10T02:06:21.348Z,63.67
2022-09-10T02:07:27.028Z,64.57
2022-09-10T02:08:33.893Z,65.14
2022-09-10T02:09:36.488Z,65.31
2022-09-10T02:10:56.207Z,65.71
2022-09-10T02:11:57.938Z,65.78
2022-09-10T02:12:59.683Z,65.35
2022-09-10T02:14:01.459Z,65.83
2022-09-10T02:15:04.635Z,66.14
2022-09-10T02:16:11.386Z,66.25
2022-09-10T02:17:13.415Z,66.48
2022-09-10T02:18:15.915Z,66.26
2022-09-10T02:19:18.054Z,66.36
2022-09-10T02:20:22.242Z,66.11
2022-09-10T02:21:24.130Z,65.73
2022-09-10T02:22:25.949Z,65.84
2022-09-10T02:23:37.411Z,65.68
2022-09-10T02:24:39.257Z,65.46
2022-09-10T02:25:40.998Z,65.47
2022-09-10T02:26:44.407Z,66.17
2022-09-10T02:27:47.822Z,66.07
2022-09-10T02:28:52.272Z,65.67
2022-09-10T02:29:55.572Z,65.31
2022-09-10T02:30:57.371Z,65.96
2022-09-10T02:31:59.942Z,65.47
2022-09-10T02:33:01.622Z,65.96
2022-09-10T02:34:03.700Z,65.69
2022-09-10T02:35:05.910Z,65.97
2022-09-10T02:36:07.672Z,65.68
2022-09-10T02:37:09.513Z,66.20
2022-09-10T02:38:11.377Z,65.57
2022-09-10T02:39:13.255Z,65.94
2022-09-10T02:40:15.109Z,66.18
2022-09-10T02:41:18.100Z,66.57
2022-09-10T02:42:20.055Z,66.00
2022-09-10T02:43:21.787Z,66.72
2022-09-10T02:44:23.551Z,66.41
2022-09-10T02:45:25.642Z,66.62
2022-09-10T02:46:27.599Z,66.71
2022-09-10T02:47:30.229Z,66.64
2022-09-10T02:48:32.142Z,66.88
2022-09-10T02:49:34.854Z,66.69
2022-09-10T02:50:36.833Z,67.00
2022-09-10T02:51:39.011Z,67.33
2022-09-10T02:52:40.729Z,67.48
2022-09-10T02:53:42.938Z,67.39
2022-09-10T02:54:44.659Z,66.95
2022-09-10T02:55:46.836Z,67.35
2022-09-10T02:56:51.207Z,67.56
2022-09-10T02:57:52.904Z,66.94
2022-09-10T02:58:54.668Z,67.40
2022-09-10T02:59:57.245Z,67.00
2022-09-10T03:01:10.021Z,67.24
2022-09-10T03:02:12.002Z,67.45
2022-09-10T03:03:14.976Z,67.47
2022-09-10T03:04:17.407Z,67.33
2022-09-10T03:05:19.247Z,67.41
2022-09-10T03:06:22.175Z,67.18
2022-09-10T03:07:23.942Z,67.18
2022-09-10T03:08:26.604Z,67.49
2022-09-10T03:09:29.036Z,67.57
2022-09-10T03:10:31.969Z,67.88
2022-09-10T03:11:34.958Z,67.81
2022-09-10T03:12:36.823Z,67.73
2022-09-10T03:13:38.545Z,67.65
2022-09-10T03:14:40.288Z,67.43
2022-09-10T03:15:44.809Z,67.52
2022-09-10T03:16:48.083Z,67.95
2022-09-10T03:17:49.881Z,67.72
2022-09-10T03:18:52.483Z,67.96
2022-09-10T03:19:54.397Z,67.16
2022-09-10T03:20:56.173Z,67.50
2022-09-10T03:21:58.027Z,67.49
2022-09-10T03:22:59.808Z,67.52
2022-09-10T03:24:04.684Z,67.12
2022-09-10T03:25:08.159Z,67.31
2022-09-10T03:26:10.351Z,67.74
2022-09-10T03:27:14.264Z,67.69
2022-09-10T03:28:16.414Z,67.31
2022-09-10T03:29:18.173Z,67.60
2022-09-10T03:30:21.338Z,67.45
2022-09-10T03:31:23.159Z,67.89
2022-09-10T03:32:25.049Z,67.86
2022-09-10T03:33:27.784Z,68.21
2022-09-10T03:34:29.495Z,68.36
2022-09-10T03:35:31.220Z,68.49
2022-09-10T03:36:32.904Z,68.83
2022-09-10T03:37:34.659Z,68.99
2022-09-10T03:38:36.483Z,68.44
2022-09-10T03:39:38.252Z,68.37
2022-09-10T03:40:40.727Z,68.66
2022-09-10T03:41:42.550Z,69.02
2022-09-10T03:42:44.275Z,68.94
2022-09-10T03:43:46.262Z,68.53
2022-09-10T03:44:48.015Z,68.72
2022-09-10T03:45:51.647Z,68.55
2022-09-10T03:46:53.394Z,68.61
2022-09-10T03:47:55.134Z,68.82
2022-09-10T03:48:57.289Z,68.87
2022-09-10T03:50:00.144Z,69.10
2022-09-10T03:51:02.040Z,68.84
2022-09-10T03:52:03.949Z,69.02
2022-09-10T03:53:05.664Z,69.19
2022-09-10T03:54:07.378Z,69.22
2022-09-10T03:55:10.629Z,68.61
2022-09-10T03:56:12.370Z,68.84
2022-09-10T03:57:14.175Z,69.25
2022-09-10T03:58:16.968Z,69.24
2022-09-10T03:59:18.810Z,69.53
2022-09-10T04:00:20.632Z,69.56
2022-09-10T04:01:22.357Z,69.51
2022-09-10T04:02:24.182Z,69.82
2022-09-10T04:03:27.160Z,69.40
2022-09-10T04:04:29.656Z,69.51
2022-09-10T04:05:33.080Z,69.68
2022-09-10T04:06:35.707Z,69.71
2022-09-10T04:07:38.008Z,69.74
2022-09-10T04:08:40.734Z,69.93
2022-09-10T04:09:42.596Z,69.84
2022-09-10T04:10:44.534Z,69.90
2022-09-10T04:11:46.956Z,69.73
2022-09-10T04:12:49.077Z,69.85
2022-09-10T04:13:51.525Z,69.83
2022-09-10T04:14:53.640Z,69.73
2022-09-10T04:15:56.233Z,70.14
2022-09-10T04:16:59.147Z,70.25
2022-09-10T04:18:01.022Z,70.35
2022-09-10T04:19:02.840Z,70.35
2022-09-10T04:20:04.972Z,70.28
2022-09-10T04:21:06.858Z,70.20
2022-09-10T04:22:08.562Z,70.22
2022-09-10T04:23:10.354Z,69.95
2022-09-10T04:24:12.866Z,70.35
2022-09-10T04:25:16.055Z,70.40
2022-09-10T04:26:19.562Z,70.27
2022-09-10T04:27:22.435Z,70.24
2022-09-10T04:28:24.299Z,69.10
2022-09-10T04:29:26.073Z,68.98
2022-09-10T04:30:28.960Z,68.88
2022-09-10T04:31:30.728Z,68.80
2022-09-10T04:32:32.523Z,68.60
2022-09-10T04:33:34.332Z,68.97
2022-09-10T04:34:36.137Z,68.79
2022-09-10T04:35:39.644Z,68.87
2022-09-10T04:36:41.411Z,68.81
2022-09-10T04:37:43.351Z,68.85
2022-09-10T04:38:45.082Z,68.20
2022-09-10T04:39:47.017Z,67.81
2022-09-10T04:40:48.760Z,67.15
2022-09-10T04:41:50.461Z,67.32
2022-09-10T04:42:52.247Z,67.89
2022-09-10T04:43:53.939Z,67.00
2022-09-10T04:44:55.629Z,67.62
2022-09-10T04:45:57.441Z,67.07
2022-09-10T04:46:59.224Z,65.75
2022-09-10T04:48:06.197Z,64.22
2022-09-10T04:49:08.757Z,64.31
2022-09-10T04:50:10.758Z,64.92
2022-09-10T04:51:16.503Z,65.32
2022-09-10T04:52:20.365Z,64.85
2022-09-10T04:53:22.127Z,64.54
2022-09-10T04:54:23.835Z,63.94
2022-09-10T04:55:26.299Z,63.05
2022-09-10T04:56:28.190Z,62.96
2022-09-10T04:57:30.071Z,63.72
2022-09-10T04:58:36.560Z,62.02
2022-09-10T04:59:40.487Z,62.35
2022-09-10T05:00:42.263Z,63.37
2022-09-10T05:01:44.104Z,63.63
2022-09-10T05:02:46.798Z,61.73
2022-09-10T05:03:48.490Z,60.18
2022-09-10T05:04:50.919Z,60.49
2022-09-10T05:05:52.723Z,59.18
2022-09-10T05:06:54.468Z,58.55
2022-09-10T05:07:56.298Z,56.70
2022-09-10T05:08:58.639Z,58.11
2022-09-10T05:10:00.325Z,57.11
2022-09-10T05:11:02.968Z,57.74
2022-09-10T05:12:05.026Z,57.10
2022-09-10T05:13:07.183Z,57.41
2022-09-10T05:14:09.053Z,56.54
2022-09-10T05:15:10.929Z,56.05
2022-09-10T05:16:12.711Z,53.10
2022-09-10T05:17:15.571Z,54.29
2022-09-10T05:18:17.280Z,54.62
2022-09-10T05:19:19.044Z,53.51
2022-09-10T05:20:20.759Z,53.49
2022-09-10T05:21:22.820Z,52.88
2022-09-10T05:22:27.359Z,49.75
2022-09-10T05:23:33.439Z,51.96
2022-09-10T05:24:35.125Z,50.98
2022-09-10T05:25:37.858Z,50.26
2022-09-10T05:26:40.169Z,50.27
2022-09-10T05:27:42.085Z,48.95
2022-09-10T05:28:43.934Z,48.58
2022-09-10T05:29:45.634Z,47.60
2022-09-10T05:30:51.560Z,47.01
2022-09-10T05:31:53.742Z,46.23
2022-09-10T05:32:55.812Z,47.15
2022-09-10T05:33:59.491Z,46.63
2022-09-10T05:35:02.314Z,46.06
2022-09-10T05:36:05.340Z,45.50
2022-09-10T05:37:08.943Z,45.09
2022-09-10T05:38:14.762Z,45.05
2022-09-10T05:39:16.881Z,45.27
2022-09-10T05:40:21.761Z,43.26
2022-09-10T05:41:24.750Z,43.14
2022-09-10T05:42:27.083Z,43.22
2022-09-10T05:43:29.057Z,43.22
2022-09-10T05:44:30.819Z,42.40
2022-09-10T05:45:32.728Z,42.23
2022-09-10T05:46:34.847Z,42.59
2022-09-10T05:47:37.684Z,42.41
2022-09-10T05:48:41.934Z,41.71
2022-09-10T05:49:44.920Z,40.70
2022-09-10T05:50:46.661Z,40.54
2022-09-10T05:51:48.410Z,39.73
2022-09-10T05:52:50.047Z,39.10
2022-09-10T05:53:51.690Z,39.50
2022-09-10T05:54:56.553Z,39.66
2022-09-10T05:55:58.219Z,39.04
2022-09-10T05:57:00.334Z,38.85
2022-09-10T05:58:03.043Z,38.60
2022-09-10T05:59:05.695Z,39.21
2022-09-10T06:00:09.433Z,39.57
2022-09-10T06:01:11.349Z,39.03
2022-09-10T06:02:23.946Z,38.78
2022-09-10T06:03:26.183Z,38.44
2022-09-10T06:04:27.857Z,38.54
2022-09-10T06:05:29.529Z,38.12
2022-09-10T06:06:31.366Z,37.32
2022-09-10T06:07:33.185Z,38.16
2022-09-10T06:08:35.807Z,37.89
2022-09-10T06:09:37.575Z,38.08
2022-09-10T06:10:39.430Z,38.06
2022-09-10T06:11:41.993Z,38.45
2022-09-10T06:12:47.202Z,38.46
2022-09-10T06:13:49.260Z,37.69
2022-09-10T06:14:50.911Z,37.34
2022-09-10T06:15:53.143Z,37.75
2022-09-10T06:16:55.319Z,36.05
2022-09-10T06:17:57.640Z,37.35
2022-09-10T06:18:59.770Z,37.40
2022-09-10T06:20:01.492Z,35.32
2022-09-10T06:21:15.420Z,35.66
2022-09-10T06:22:17.093Z,35.92
2022-09-10T06:23:18.829Z,34.61
2022-09-10T06:24:21.192Z,35.19
2022-09-10T06:25:23.070Z,35.04
2022-09-10T06:26:24.726Z,35.39
2022-09-10T06:27:26.644Z,34.21
2022-09-10T06:28:28.649Z,34.59
2022-09-10T06:29:30.357Z,33.71
2022-09-10T06:30:32.525Z,33.61
2022-09-10T06:31:34.996Z,33.20
2022-09-10T06:32:36.725Z,33.09
2022-09-10T06:33:38.383Z,33.25
2022-09-10T06:34:40.056Z,33.55
2022-09-10T06:35:41.758Z,33.10
2022-09-10T06:36:43.806Z,34.70
2022-09-10T06:37:45.506Z,34.09
2022-09-10T06:38:48.212Z,33.99
2022-09-10T06:39:49.916Z,34.50
2022-09-10T06:40:56.246Z,34.49
2022-09-10T06:41:57.915Z,35.24
2022-09-10T06:43:02.263Z,35.83
2022-09-10T06:44:03.954Z,35.60
2022-09-10T06:45:06.269Z,36.58
2022-09-10T06:46:56.939Z,35.83
2022-09-10T06:48:51.546Z,37.66
2022-09-10T06:49:04.326Z,37.39
2022-09-10T06:50:06.470Z,37.36
2022-09-10T06:51:10.236Z,37.62
2022-09-10T06:52:11.893Z,38.45
2022-09-10T06:53:13.728Z,37.38
2022-09-10T06:54:15.422Z,36.98
2022-09-10T06:55:17.259Z,37.62
2022-09-10T06:56:18.926Z,37.14
2022-09-10T06:57:20.837Z,35.46
2022-09-10T06:58:24.664Z,34.40
2022-09-10T06:59:26.306Z,33.73
2022-09-10T07:00:28.105Z,33.92
2022-09-10T07:01:29.986Z,35.65
2022-09-10T07:02:31.705Z,35.94
2022-09-10T07:03:33.638Z,36.18
2022-09-10T07:04:35.456Z,36.70
2022-09-10T07:05:37.128Z,36.46
2022-09-10T07:06:39.036Z,35.75
2022-09-10T07:07:41.013Z,35.20
2022-09-10T07:08:43.229Z,34.77
2022-09-10T07:09:45.501Z,35.24
2022-09-10T07:10:47.219Z,33.30
2022-09-10T07:11:48.868Z,33.41
2022-09-10T07:12:50.646Z,33.74
2022-09-10T07:13:53.962Z,33.63
2022-09-10T07:14:55.630Z,33.77
2022-09-10T07:15:57.749Z,33.44
2022-09-10T07:16:59.465Z,33.94
2022-09-10T07:18:01.292Z,33.73
2022-09-10T07:19:02.961Z,33.83
2022-09-10T07:20:05.157Z,32.78
2022-09-10T07:21:08.261Z,33.29
2022-09-10T07:22:09.965Z,32.72
2022-09-10T07:23:16.343Z,31.92
2022-09-10T07:24:20.139Z,32.50
2022-09-10T07:25:23.537Z,32.00
2022-09-10T07:26:26.058Z,31.29
2022-09-10T07:27:27.701Z,32.36
2022-09-10T07:28:29.449Z,31.47
2022-09-10T07:29:31.444Z,31.03
2022-09-10T07:30:34.029Z,31.01
2022-09-10T07:31:38.355Z,31.43
2022-09-10T07:32:40.621Z,30.89
2022-09-10T07:33:43.307Z,31.04
2022-09-10T07:34:46.751Z,30.68
2022-09-10T07:35:48.398Z,30.08
2022-09-10T07:36:50.805Z,31.08
2022-09-10T07:37:52.475Z,30.30
2022-09-10T07:38:57.712Z,30.76
2022-09-10T07:39:59.963Z,30.22
2022-09-10T07:41:02.949Z,28.65
2022-09-10T07:42:04.862Z,29.57
2022-09-10T07:43:07.339Z,30.47
2022-09-10T07:44:09.077Z,28.33
2022-09-10T07:45:16.307Z,29.25
2022-09-10T07:46:22.030Z,30.19
2022-09-10T07:47:25.402Z,29.62
2022-09-10T07:48:28.553Z,28.53
2022-09-10T07:49:30.358Z,30.63
2022-09-10T07:50:32.176Z,30.08
2022-09-10T07:51:34.418Z,29.68
2022-09-10T07:52:36.945Z,29.82
2022-09-10T07:53:42.171Z,29.75
2022-09-10T07:54:51.852Z,28.01
2022-09-10T07:56:09.489Z,30.21
2022-09-10T07:57:11.164Z,27.92
2022-09-10T07:58:12.871Z,27.09
2022-09-10T07:59:15.478Z,27.84
2022-09-10T08:00:18.642Z,28.03
2022-09-10T08:01:20.423Z,28.62
2022-09-10T08:02:22.511Z,28.50
2022-09-10T08:03:24.221Z,29.75
2022-09-10T08:04:26.283Z,28.39
2022-09-10T08:05:28.932Z,28.82
2022-09-10T08:06:32.332Z,28.51
2022-09-10T08:07:34.246Z,28.18
2022-09-10T08:08:38.541Z,28.60
2022-09-10T08:09:40.412Z,28.27
2022-09-10T08:10:42.349Z,29.75
2022-09-10T08:11:43.986Z,28.59
2022-09-10T08:12:45.880Z,28.40
2022-09-10T08:13:50.121Z,29.13
2022-09-10T08:14:52.448Z,29.51
2022-09-10T08:15:54.166Z,30.54
2022-09-10T08:16:55.976Z,31.32
2022-09-10T08:17:59.931Z,30.69
2022-09-10T08:19:02.025Z,31.75
2022-09-10T08:20:08.893Z,30.89
2022-09-10T08:21:11.346Z,30.90
2022-09-10T08:22:14.316Z,30.13
2022-09-10T08:23:15.966Z,29.59
2022-09-10T08:24:17.851Z,29.27
2022-09-10T08:25:22.488Z,28.94
2022-09-10T08:26:25.944Z,29.85
2022-09-10T08:27:27.662Z,30.32
2022-09-10T08:28:29.511Z,29.44
2022-09-10T08:29:31.195Z,30.28
2022-09-10T08:30:32.931Z,30.29
2022-09-10T08:31:34.856Z,31.38
2022-09-10T08:32:36.563Z,28.50
2022-09-10T08:33:39.835Z,28.80
2022-09-10T08:34:41.811Z,28.68
2022-09-10T08:35:43.447Z,27.35
2022-09-10T08:36:45.167Z,27.13
2022-09-10T08:37:47.740Z,26.48
2022-09-10T08:38:50.513Z,26.70
2022-09-10T08:39:52.246Z,26.91
2022-09-10T08:40:54.756Z,28.54
2022-09-10T08:41:59.540Z,28.22
2022-09-10T08:43:01.791Z,27.52
2022-09-10T08:44:12.671Z,28.89
2022-09-10T08:45:19.348Z,27.85
2022-09-10T08:46:26.988Z,27.24
2022-09-10T08:47:40.710Z,26.58
2022-09-10T08:48:44.846Z,26.56
2022-09-10T08:49:51.730Z,26.71
2022-09-10T08:51:26.403Z,26.46
2022-09-10T08:52:38.430Z,26.64
2022-09-10T08:53:59.937Z,26.90
2022-09-10T08:55:22.953Z,27.33
2022-09-10T08:56:25.160Z,26.88
2022-09-10T08:57:34.402Z,26.11
2022-09-10T08:58:43.870Z,27.60
2022-09-10T08:59:47.680Z,28.21
2022-09-10T09:00:56.057Z,26.05
2022-09-10T09:02:02.404Z,27.63
2022-09-10T09:03:28.701Z,27.60
2022-09-10T09:04:54.472Z,27.10
2022-09-10T09:06:00.625Z,27.59
2022-09-10T09:07:10.682Z,27.89
2022-09-10T09:08:15.967Z,28.31
2022-09-10T09:09:17.970Z,27.19
2022-09-10T09:10:25.853Z,27.08
2022-09-10T09:11:37.100Z,28.70
2022-09-10T09:13:03.309Z,28.40
2022-09-10T09:14:33.778Z,28.22
2022-09-10T09:15:56.074Z,28.56
2022-09-10T09:17:35.448Z,29.52
2022-09-10T09:18:47.004Z,31.20
2022-09-10T09:20:14.443Z,30.79
2022-09-10T09:21:18.304Z,29.57
2022-09-10T09:22:38.079Z,30.63
2022-09-10T09:24:12.626Z,29.39
2022-09-10T09:25:21.030Z,28.51
2022-09-10T09:26:35.034Z,29.04
2022-09-10T09:27:41.639Z,27.32
2022-09-10T09:29:01.757Z,28.21
2022-09-10T09:30:06.751Z,28.12
2022-09-10T09:31:14.668Z,27.68
2022-09-10T09:32:19.285Z,27.88
2022-09-10T09:33:23.831Z,28.30
2022-09-10T09:34:34.659Z,28.29
2022-09-10T09:35:54.081Z,29.52
2022-09-10T09:37:01.573Z,28.47
2022-09-10T09:38:25.158Z,28.25
2022-09-10T09:39:36.384Z,28.26
2022-09-10T09:40:46.811Z,27.25
2022-09-10T09:41:59.267Z,28.19
2022-09-10T09:43:13.916Z,29.18
2022-09-10T09:44:19.196Z,26.40
2022-09-10T09:45:44.147Z,25.42
2022-09-10T09:46:45.849Z,26.31
2022-09-10T09:47:50.316Z,25.68
2022-09-10T09:48:57.691Z,25.93
2022-09-10T09:50:00.538Z,25.66
2022-09-10T09:51:04.532Z,26.85
2022-09-10T09:52:23.273Z,25.26
2022-09-10T09:53:28.011Z,27.00
2022-09-10T09:55:03.234Z,25.60
2022-09-10T09:55:56.890Z,24.91
2022-09-10T09:56:59.969Z,26.97
2022-09-10T09:58:32.504Z,26.16
2022-09-10T09:59:37.632Z,26.14
2022-09-10T10:00:39.369Z,26.74
2022-09-10T10:01:42.954Z,25.74
2022-09-10T10:02:45.372Z,26.70
2022-09-10T10:04:05.525Z,28.17
2022-09-10T10:05:20.781Z,25.69
2022-09-10T10:06:50.976Z,26.28
2022-09-10T10:07:52.961Z,25.89
2022-09-10T10:09:01.662Z,27.39
2022-09-10T10:10:07.540Z,25.72
2022-09-10T10:11:12.404Z,26.67
2022-09-10T10:12:21.715Z,26.73
2022-09-10T10:13:24.337Z,28.17
2022-09-10T10:14:35.326Z,25.06
2022-09-10T10:15:41.182Z,25.65
2022-09-10T10:16:43.094Z,26.47
2022-09-10T10:17:44.986Z,23.79
2022-09-10T10:18:46.715Z,25.00
2022-09-10T10:20:19.605Z,24.79
2022-09-10T10:21:34.964Z,24.94
2022-09-10T10:22:39.028Z,25.57
2022-09-10T10:23:41.089Z,26.97
2022-09-10T10:24:43.201Z,25.24
2022-09-10T10:25:48.826Z,25.60
2022-09-10T10:26:50.687Z,25.94
2022-09-10T10:27:54.527Z,25.83
2022-09-10T10:29:01.365Z,25.25
2022-09-10T10:30:06.195Z,25.35
2022-09-10T10:31:07.937Z,25.49
2022-09-10T10:32:16.553Z,24.80
2022-09-10T10:33:31.729Z,25.10
2022-09-10T10:34:47.473Z,24.18
2022-09-10T10:35:49.130Z,23.91
2022-09-10T10:37:06.371Z,25.46
2022-09-10T10:38:44.637Z,24.54
2022-09-10T10:40:04.717Z,24.80
2022-09-10T10:41:40.066Z,24.54
2022-09-10T10:42:49.217Z,24.82
2022-09-10T10:44:03.229Z,24.98
2022-09-10T10:45:32.870Z,26.45
2022-09-10T10:47:09.814Z,24.96
2022-09-10T10:48:32.866Z,23.84
2022-09-10T10:50:08.260Z,25.15
2022-09-10T10:51:18.254Z,24.42
2022-09-10T10:52:47.770Z,24.48
2022-09-10T10:54:28.813Z,26.56
2022-09-10T10:55:41.772Z,26.14
2022-09-10T10:57:27.686Z,25.97
2022-09-10T10:59:04.744Z,25.72
2022-09-10T11:00:13.010Z,25.95
2022-09-10T11:01:21.680Z,25.80
2022-09-10T11:02:36.324Z,25.73
2022-09-10T11:03:46.412Z,25.62
2022-09-10T11:04:53.496Z,25.73
2022-09-10T11:06:05.395Z,26.34
2022-09-10T11:07:23.233Z,26.39
2022-09-10T11:08:37.617Z,25.79
2022-09-10T11:09:43.179Z,25.73
2022-09-10T11:10:56.320Z,26.71
2022-09-10T11:12:05.861Z,27.76
2022-09-10T11:13:27.864Z,26.53
2022-09-10T11:14:38.392Z,26.65
2022-09-10T11:15:55.447Z,27.08
2022-09-10T11:17:03.778Z,25.91
2022-09-10T11:18:28.496Z,27.27
2022-09-10T11:19:38.438Z,28.14
2022-09-10T11:20:45.932Z,27.51
2022-09-10T11:21:56.421Z,27.32
2022-09-10T11:23:10.904Z,27.24
2022-09-10T11:24:23.641Z,29.47
2022-09-10T11:25:34.386Z,28.69
2022-09-10T11:26:39.896Z,29.10
2022-09-10T11:27:52.127Z,29.14
2022-09-10T11:29:18.668Z,29.58
2022-09-10T11:30:20.541Z,29.23
2022-09-10T11:31:30.474Z,28.54
2022-09-10T11:32:44.839Z,29.38
2022-09-10T11:34:02.306Z,29.22
2022-09-10T11:35:07.744Z,28.86
2022-09-10T11:36:23.511Z,30.12
2022-09-10T11:37:43.889Z,29.81
2022-09-10T11:38:59.074Z,29.45
2022-09-10T11:40:07.481Z,27.89
2022-09-10T11:41:25.092Z,29.48
2022-09-10T11:42:39.873Z,28.24
2022-09-10T11:43:42.409Z,28.24
2022-09-10T11:44:53.376Z,27.29
2022-09-10T11:45:59.142Z,27.82
2022-09-10T11:47:04.095Z,27.49
2022-09-10T11:48:10.591Z,27.73
2022-09-10T11:49:18.386Z,27.63
2022-09-10T11:50:52.128Z,27.67
2022-09-10T11:51:54.004Z,27.28
2022-09-10T11:52:59.398Z,27.60
2022-09-10T11:54:03.933Z,27.15
2022-09-10T11:55:08.631Z,29.35
2022-09-10T11:56:49.664Z,28.52
2022-09-10T11:58:00.221Z,29.58
2022-09-10T11:59:40.980Z,29.46
2022-09-10T12:00:56.641Z,30.13
2022-09-10T12:02:15.276Z,30.79
2022-09-10T12:04:01.767Z,30.55
2022-09-10T12:05:30.312Z,31.77
2022-09-10T12:07:01.344Z,32.08
2022-09-10T12:08:28.665Z,32.00
2022-09-10T12:10:00.002Z,32.45
2022-09-10T12:11:20.261Z,32.30
2022-09-10T12:12:32.005Z,33.45
2022-09-10T12:13:39.535Z,33.69
2022-09-10T12:14:41.748Z,32.94
2022-09-10T12:15:56.270Z,34.25
2022-09-10T12:17:04.069Z,33.97
2022-09-10T12:18:22.044Z,34.32
2022-09-10T12:19:31.661Z,33.94
2022-09-10T12:20:54.899Z,34.31
2022-09-10T12:22:16.976Z,33.93
2022-09-10T12:23:31.941Z,35.30
2022-09-10T12:24:36.966Z,36.96
2022-09-10T12:25:38.893Z,35.86
2022-09-10T12:26:45.115Z,35.34
2022-09-10T12:27:49.164Z,35.93
2022-09-10T12:28:53.621Z,36.18
2022-09-10T12:29:55.364Z,35.75
2022-09-10T12:31:03.901Z,35.76
2022-09-10T12:32:14.826Z,35.84
2022-09-10T12:33:16.352Z,35.34
2022-09-10T12:34:19.760Z,35.86
2022-09-10T12:35:34.376Z,37.22
2022-09-10T12:36:36.114Z,38.13
2022-09-10T12:37:37.881Z,38.36
2022-09-10T12:39:01.476Z,41.75
2022-09-10T12:40:44.418Z,40.06
2022-09-10T12:41:46.008Z,40.05
2022-09-10T12:42:47.680Z,40.03
2022-09-10T12:43:49.332Z,40.56
2022-09-10T12:44:51.134Z,40.07
2022-09-10T12:46:17.531Z,40.68
2022-09-10T12:47:45.261Z,39.84
2022-09-10T12:48:50.922Z,40.54
2022-09-10T12:50:06.365Z,40.81
2022-09-10T12:51:28.259Z,41.66
2022-09-10T12:53:02.917Z,41.40
2022-09-10T12:54:04.570Z,43.16
2022-09-10T12:55:15.160Z,41.77
2022-09-10T12:56:45.914Z,42.86
2022-09-10T12:58:16.445Z,42.37
2022-09-10T12:59:36.565Z,42.36
2022-09-10T13:01:03.796Z,43.70
2022-09-10T13:02:28.193Z,43.33
2022-09-10T13:03:31.329Z,43.09
2022-09-10T13:04:37.837Z,43.73
2022-09-10T13:05:54.247Z,44.82
2022-09-10T13:07:04.377Z,45.29
2022-09-10T13:08:26.438Z,44.70
2022-09-10T13:09:31.589Z,44.06
2022-09-10T13:10:34.101Z,42.92
2022-09-10T13:11:36.762Z,44.56
2022-09-10T13:12:42.666Z,43.15
2022-09-10T13:14:01.259Z,43.23
2022-09-10T13:15:04.983Z,42.00
2022-09-10T13:16:14.621Z,42.41
2022-09-10T13:17:39.890Z,42.01
2022-09-10T13:18:42.175Z,39.72
2022-09-10T13:19:43.763Z,39.01
2022-09-10T13:20:45.436Z,39.65
2022-09-10T13:21:48.209Z,38.75
2022-09-10T13:22:56.069Z,38.65
2022-09-10T13:23:58.222Z,39.05
2022-09-10T13:25:02.825Z,39.27
2022-09-10T13:26:26.065Z,39.36
2022-09-10T13:27:39.971Z,39.03
2022-09-10T13:28:42.978Z,38.77
2022-09-10T13:29:53.608Z,37.49
2022-09-10T13:31:12.113Z,38.83
2022-09-10T13:32:16.782Z,38.23
2022-09-10T13:33:23.208Z,37.76
2022-09-10T13:34:56.861Z,39.03
2022-09-10T13:36:05.750Z,38.52
2022-09-10T13:37:22.635Z,40.16
2022-09-10T13:39:02.248Z,38.23
2022-09-10T13:40:46.460Z,38.52
2022-09-10T13:41:54.443Z,38.72
2022-09-10T13:43:33.804Z,38.45
2022-09-10T13:44:56.944Z,39.32
2022-09-10T13:46:02.886Z,39.29
2022-09-10T13:47:11.835Z,39.23
2022-09-10T13:48:22.217Z,40.29
2022-09-10T13:49:53.554Z,39.91
2022-09-10T13:51:01.105Z,39.54
2022-09-10T13:52:05.848Z,40.43
2022-09-10T13:53:11.874Z,40.57
2022-09-10T13:54:33.372Z,38.58
2022-09-10T13:55:35.665Z,39.32
2022-09-10T13:56:41.826Z,39.12
2022-09-10T13:57:47.743Z,39.49
2022-09-10T13:58:52.297Z,40.72
2022-09-10T14:00:05.396Z,40.52
2022-09-10T14:01:07.546Z,40.68
2022-09-10T14:02:09.491Z,40.75
2022-09-10T14:03:23.257Z,41.06
2022-09-10T14:04:45.274Z,40.16
2022-09-10T14:05:57.599Z,39.29
2022-09-10T14:07:13.317Z,39.09
2022-09-10T14:08:27.059Z,38.94
2022-09-10T14:09:29.886Z,39.30
2022-09-10T14:10:32.396Z,40.13
2022-09-10T14:11:38.937Z,40.49
2022-09-10T14:12:41.191Z,39.55
2022-09-10T14:14:14.249Z,39.86
2022-09-10T14:15:19.665Z,39.46
2022-09-10T14:16:30.106Z,39.40
2022-09-10T14:17:41.316Z,39.06
2022-09-10T14:18:45.215Z,39.28
2022-09-10T14:19:58.178Z,39.11
2022-09-10T14:21:00.572Z,39.32
2022-09-10T14:22:06.204Z,38.81
2022-09-10T14:23:16.183Z,39.16
2022-09-10T14:24:52.161Z,38.89
2022-09-10T14:26:23.685Z,38.22
2022-09-10T14:27:31.082Z,39.55
2022-09-10T14:28:32.762Z,39.49
2022-09-10T14:29:34.469Z,38.68